Terrenceville, Canada
Current Conditions -  °F | °C
As of 1:00 PM on Friday 24 Oct 2014 (Local Time) from CYQX Reporting Station
Light Rain Light Rain  
Wind Chill:   Ceiling: 600
Heat Index:   Visibility: 8mi
Dew Point:   Wind: 10mph
Humidity: 100%   Direction: 70°ENE
Pressure: 29.97"   Gusts: 17mph
Location:  47.68°N, 54.72°W
Report Text: CYQX 241500Z 07009G15KT 8SM -RA BKN006 BKN012 BKN029 08/08 A2997 RMK SF5SC1SC1 SLP153
Loading
Personal Weather Stations






























Interactive Weather Map
Tropical Storm Tracking
New forecast layout! Learn more

10-Day Weather Forecast

Advertisements
Track Severe Weather on mobile